• Join FlightAware (Why Join?)
  • Login
  • US Flag 
05:03PM EST


 

Airport Tracker/Info


-or-


 

Live Flight TrackerFlight Track Log ✈ N33KC ✈ 27-Aug-2014 ✈ KBFI - KSFF

Flight Track Log - Related Links

Times and Time Zones

All times are in EDT time to prevent confusion due to time zone crossing. See the N33KC flight status page for this flight to view local times or setup timezone preferences in your user account.

Time Position Orientation Groundspeed Altitude Reporting Facility
EDT Latitude Longitude Course Direction KTS MPH feet Rate Location/Type
09:02PM 47.5092 -122.2861 155° Southeast 142 163 800  Level Seattle Center
09:02PM 47.5011 -122.2806 155° Southeast 138 159 1,000 840 Climbing Seattle Center
09:03PM 47.4694 -122.2472 145° Southeast 138 159 1,900 900 Climbing Seattle Center
09:04PM 47.4369 -122.2128 144° Southeast 142 163 2,900 900 Climbing Seattle Center
09:05PM 47.4469 -122.1658 73° East 119 137 3,800 840 Climbing Seattle Center
09:06PM 47.4611 -122.1167 67° East 125 144 4,700 780 Climbing Seattle Center
09:07PM 47.4747 -122.0658 68° East 129 148 5,500 600 Climbing Seattle Center
09:08PM 47.4897 -122.0106 68° East 143 165 6,000 540 Climbing Seattle Center
09:09PM 47.5083 -121.9428 68° East 163 188 6,700 720 Climbing Seattle Center
09:10PM 47.5247 -121.8825 68° East 162 186 7,500 720 Climbing Seattle Center
09:11PM 47.5403 -121.8225 69° East 160 184 8,200 780 Climbing Seattle Center
09:12PM 47.5228 -121.7689 116° Southeast 157 181 9,100 660 Climbing Seattle Center
09:13PM 47.4778 -121.7572 170° South 152 175 9,600 240 Climbing Seattle Center
09:14PM 47.4286 -121.7508 175° South 174 200 9,600  Level Seattle Center
09:15PM 47.3792 -121.7442 175° South 176 203 9,600  Level Seattle Center
09:16PM 47.3294 -121.7367 174° South 177 204 9,600  Level Seattle Center
09:17PM 47.2797 -121.7294 174° South 179 206 9,600  Level Seattle Center
09:18PM 47.2250 -121.7217 174° South 180 207 9,600 240 Level Seattle Center
09:19PM 47.1783 -121.7147 174° South 170 196 10,200 600 Climbing Seattle Center
09:20PM 47.1389 -121.7042 170° South 147 169 10,900 540 Climbing Seattle Center
09:21PM 47.0986 -121.6986 175° South 145 167 11,400 240 Climbing Seattle Center
09:22PM 47.0492 -121.6922 175° South 165 190 11,500  Climbing Seattle Center
09:23PM 47.0000 -121.6856 175° South 174 200 11,500  Level Seattle Center
09:24PM 46.9528 -121.6817 177° South 173 199 11,500  Level Seattle Center
09:25PM 46.9047 -121.6789 178° South 173 199 11,500  Level Seattle Center
09:26PM 46.8558 -121.6803 181° South 174 200 11,500  Level Seattle Center
09:27PM 46.8106 -121.7000 197° South 181 208 11,500  Level Seattle Center
09:28PM 46.7578 -121.7297 201° Southwest 180 207 11,600  Climbing Seattle Center
09:29PM 46.7108 -121.7569 202° Southwest 176 203 11,600  Level Seattle Center
09:30PM 46.6656 -121.7864 204° Southwest 176 203 11,600  Level Seattle Center
09:31PM 46.6219 -121.8114 201° Southwest 174 200 11,600  Level Seattle Center
09:32PM 46.5769 -121.8411 204° Southwest 174 200 11,600  Level Seattle Center
09:33PM 46.5344 -121.8719 207° Southwest 174 200 11,600  Level Seattle Center
09:34PM 46.4903 -121.9042 207° Southwest 175 201 11,600 -60 Level Seattle Center
09:36PM 46.4461 -121.9342 205° Southwest 174 200 11,500 -600 Descending Seattle Center
09:37PM 46.4022 -121.9978 225° Southwest 206 237 10,400 -1,080 Descending Seattle Center
09:38PM 46.3644 -122.0422 219° Southwest 207 238 9,400 -600 Descending Seattle Center
09:39PM 46.3117 -122.0889 211° Southwest 201 231 9,200 -120 Descending Seattle Center
09:40PM 46.2642 -122.1158 201° Southwest 185 213 9,200  Level Seattle Center
09:41PM 46.2206 -122.1458 205° Southwest 179 206 9,200 120 Level Seattle Center
09:42PM 46.1886 -122.1947 227° Southwest 169 194 9,500 120 Climbing Seattle Center
09:43PM 46.2200 -122.2092 342° North 189 217 9,500 -180 Level Seattle Center
09:44PM 46.1858 -122.1872 156° South 185 213 9,200 -60 Descending Seattle Center
09:45PM 46.2244 -122.2042 343° North 179 206 9,400 540 Climbing Seattle Center
09:46PM 46.2464 -122.1375 65° Northeast 180 207 10,300 840 Climbing Seattle Center
09:47PM 46.2681 -122.0728 64° Northeast 171 197 11,200 780 Climbing Seattle Center
09:48PM 46.2872 -122.0103 66° East 171 197 11,900 540 Climbing Seattle Center
09:49PM 46.3058 -121.9494 66° East 173 199 12,400 480 Climbing Seattle Center
09:50PM 46.3289 -121.8803 64° Northeast 188 216 12,900 540 Climbing Seattle Center
09:51PM 46.3511 -121.8125 65° Northeast 187 215 13,500 540 Climbing Seattle Center
09:52PM 46.3733 -121.7433 65° Northeast 189 217 14,100 540 Climbing Seattle Center
09:53PM 46.3958 -121.6722 65° Northeast 194 223 14,700 540 Climbing Seattle Center
09:54PM 46.4225 -121.5900 65° Northeast 189 217 15,300 360 Climbing Seattle Center
09:55PM 46.4475 -121.5119 65° Northeast 210 242 15,500 60 Climbing Seattle Center
09:56PM 46.4725 -121.4356 65° Northeast 209 241 15,500  Level Seattle Center
09:57PM 46.4986 -121.3547 65° Northeast 217 250 15,600  Climbing Seattle Center
09:58PM 46.5225 -121.2764 66° East 215 247 15,600 -60 Level Seattle Center
09:59PM 46.5514 -121.1906 64° Northeast 220 253 15,500 -60 Descending Seattle Center
10:00PM 46.5753 -121.1106 66° East 217 250 15,500  Level Seattle Center
10:01PM 46.6000 -121.0308 66° East 213 245 15,500  Level Seattle Center
10:02PM 46.6256 -120.9519 65° Northeast 215 247 15,600  Climbing Seattle Center
10:03PM 46.6506 -120.8722 65° Northeast 216 249 15,600  Level Seattle Center
10:04PM 46.6778 -120.7847 66° East 218 251 15,600  Level Seattle Center
10:05PM 46.7022 -120.7050 66° East 217 250 15,600  Level Seattle Center
10:06PM 46.7272 -120.6244 66° East 217 250 15,600  Level Seattle Center
10:07PM 46.7517 -120.5439 66° East 217 250 15,600  Level Seattle Center
10:08PM 46.7767 -120.4631 66° East 217 250 15,600  Level Seattle Center
10:09PM 46.8033 -120.3775 65° Northeast 217 250 15,600  Level Seattle Center
10:10PM 46.8281 -120.2961 66° East 217 250 15,600  Level Seattle Center
10:11PM 46.8517 -120.2164 67° East 216 249 15,600  Level Seattle Center
10:12PM 46.8772 -120.1372 65° Northeast 216 249 15,600  Level Seattle Center
10:13PM 46.9003 -120.0567 67° East 214 246 15,600  Level Seattle Center
10:14PM 46.9261 -119.9717 66° East 212 244 15,600  Level Seattle Center
10:15PM 46.9514 -119.8908 65° Northeast 216 249 15,700  Climbing Seattle Center
10:16PM 46.9750 -119.8103 67° East 217 250 15,700  Level Seattle Center
10:17PM 46.9992 -119.7297 66° East 217 250 15,700  Level Seattle Center
10:18PM 47.0250 -119.6422 67° East 217 250 15,700  Level Seattle Center
10:19PM 47.0486 -119.5631 66° East 214 246 15,700  Level Seattle Center
10:20PM 47.0725 -119.4825 66° East 214 246 15,700  Level Seattle Center
10:21PM 47.0961 -119.4033 66° East 215 247 15,700 -120 Level Seattle Center
10:22PM 47.1211 -119.3147 67° East 220 253 15,500 -120 Descending Seattle Center
10:23PM 47.1411 -119.2289 71° East 228 262 15,500  Level Seattle Center
10:24PM 47.1675 -119.1439 65° Northeast 214 246 15,500  Level Seattle Center
10:25PM 47.1914 -119.0639 66° East 215 247 15,500  Level Seattle Center
10:26PM 47.2147 -118.9847 67° East 213 245 15,500  Level Seattle Center
10:27PM 47.2375 -118.9036 68° East 215 247 15,500  Level Seattle Center
10:28PM 47.2639 -118.8147 66° East 221 254 15,500  Level Seattle Center
10:29PM 47.2889 -118.7325 66° East 221 254 15,500  Level Seattle Center
10:30PM 47.3125 -118.6508 67° East 218 251 15,500  Level Seattle Center
10:32PM 47.3353 -118.5675 68° East 219 252 15,500 -120 Level Seattle Center
10:33PM 47.3619 -118.4786 66° East 220 253 15,300 -360 Descending Seattle Center
10:34PM 47.3844 -118.3906 69° East 228 262 14,800 -540 Descending Seattle Center
10:35PM 47.4092 -118.3047 67° East 229 264 14,300 -540 Descending Seattle Center
10:36PM 47.4344 -118.2189 66° East 229 264 13,700 -840 Descending Seattle Center
10:37PM 47.4608 -118.1236 68° East 232 267 12,700 -1,020 Descending Seattle Center
10:38PM 47.4864 -118.0342 67° East 235 270 11,700 -1,080 Descending Seattle Center
10:39PM 47.5114 -117.9456 67° East 235 270 10,600 -1,080 Descending Seattle Center
10:40PM 47.5350 -117.8611 67° East 229 264 9,600 -1,080 Descending Seattle Center
10:41PM 47.5597 -117.7733 67° East 218 251 8,500 -1,140 Descending Seattle Center
10:42PM 47.5817 -117.6936 68° East 213 245 7,400 -1,020 Descending Seattle Center
10:43PM 47.6033 -117.6158 68° East 209 241 6,500 -900 Descending Seattle Center
10:44PM 47.6264 -117.5422 65° Northeast 199 229 5,600 -720 Descending Seattle Center
10:45PM 47.6528 -117.4697 62° Northeast 202 232 5,100 -600 Descending Seattle Center
10:46PM 47.6750 -117.4089 62° Northeast 172 198 4,400 -1,020 Descending Seattle Center
10:47PM 47.7072 -117.3533 49° Northeast 178 205 3,100 -960 Descending Seattle Center
10:48PM 47.7364 -117.3114 44° Northeast 157 181 2,500 -300 Descending Seattle Center
10:49PM 47.7139 -117.2794 136° Southeast 133 153 2,600 -180 Climbing Seattle Center
10:50PM 47.6906 -117.3069 218° Southwest 121 139 2,200 -360 Descending Seattle Center
10:51PM 47.6814 -117.3267 235° Southwest 79 91 1,900 -180 Descending Seattle Center
10:52PM 47.6808 -117.3231 103° East 40 46 1,900  Level Seattle Center